This is the latest recevied weather packets stored in our database for station/object SV2RCS-13. If no packets are shown the sender has not sent any weather packets the latest 10 day(s).
| Time | Temp. | Humidity | Pressure | Rain* | Wind** | Luminosity | Snow |
|---|---|---|---|---|---|---|---|
| 1777547818 | 20° C | 34% | 1011.1 hPa | - | - | - | - |
| 1777547218 | 20° C | 37% | 1011.6 hPa | - | - | - | - |
| 1777546617 | 20° C | 35% | 1011.3 hPa | - | - | - | - |
| 1777546017 | 20° C | 37% | 1011.5 hPa | - | - | - | - |
| 1777545417 | 20° C | 36% | 1011.7 hPa | - | - | - | - |
| 1777544818 | 20° C | 37% | 1011.9 hPa | - | - | - | - |
| 1777544217 | 20° C | 37% | 1011.9 hPa | - | - | - | - |
| 1777543617 | 20° C | 39% | 1012 hPa | - | - | - | - |
| 1777543018 | 20° C | 39% | 1012.2 hPa | - | - | - | - |
| 1777542418 | 20° C | 40% | 1012.4 hPa | - | - | - | - |
| 1777541818 | 20° C | 40% | 1012.8 hPa | - | - | - | - |
| 1777541217 | 19.44° C | 42% | 1012.8 hPa | - | - | - | - |
| 1777540618 | 20° C | 42% | 1012.8 hPa | - | - | - | - |
| 1777540017 | 20° C | 40% | 1013 hPa | - | - | - | - |
| 1777539417 | 21.11° C | 40% | 1012.9 hPa | - | - | - | - |
| 1777538817 | 21.67° C | 37% | 1012.9 hPa | - | - | - | - |
| 1777538217 | 21.11° C | 35% | 1013 hPa | - | - | - | - |
| 1777537617 | 21.67° C | 34% | 1012.8 hPa | - | - | - | - |
| 1777537018 | 21.67° C | 38% | 1013.1 hPa | - | - | - | - |
| 1777536417 | 20.56° C | 42% | 1013.6 hPa | - | - | - | - |
| 1777535817 | 20.56° C | 41% | 1013.5 hPa | - | - | - | - |
| 1777535218 | 20° C | 41% | 1013.7 hPa | - | - | - | - |
| 1777534617 | 20° C | 40% | 1013.7 hPa | - | - | - | - |
| 1777534017 | 20.56° C | 38% | 1013.7 hPa | - | - | - | - |
| 1777533417 | 21.11° C | 39% | 1013.6 hPa | - | - | - | - |
* Rain since midnight (hover to see other rain measurements)
** Current wind speed in m/s (hover to see current wind gust speed)